Latest Weather Observations for Cape Sorell

IDT60801

Issued at 1:11 am EST Thursday 18 July 2019 (issued every 10 minutes, with the page automatically refreshed every 10 minutes)

About weather observations | Map of weather stations | Latest weather observations for TAS | Other Formats
Station Details ID: 097000 Name: CAPE SORELL Lat: -42.20 Lon: 145.17 Height: 19.3 m
Data from the previous 72 hours. | See also: Recent months at Cape Sorell
Date/Time
EST
Temp
°C
App
Temp
°C
Dew
Point
°C
Rel
Hum
%
Delta-T
°C
Wind Press
QNH
hPa
Press
MSL
hPa
Rain since
9am
mm
Dir  Spd
km/h
Gust
km/h
Spd
kts
Gust
kts
18/01:00am 10.0 -0.3 6.7 80 1.6 SW 50 61 27 33 1007.9 1008.0 9.0
18/12:30am 9.3 0.1 6.2 81 1.4 SW 44 57 24 31 1008.2 1008.3 9.0
18/12:00am 9.1 -0.6 6.0 81 1.4 SW 46 57 25 31 1007.8 1007.9 9.0
 
Date/Time
EST
Temp
°C
App
Temp
°C
Dew
Point
°C
Rel
Hum
%
Delta-T
°C
Wind Press
QNH
hPa
Press
MSL
hPa
Rain since
9am
mm
Dir  Spd
km/h
Gust
km/h
Spd
kts
Gust
kts
17/11:30pm 9.5 -2.3 5.5 76 1.8 SW 57 72 31 39 1007.1 1007.2 8.8
17/11:00pm 9.1 -5.6 5.7 79 1.6 SW 72 87 39 47 1006.5 1006.6 8.8
17/10:52pm 8.5 -4.5 5.6 82 1.3 SW 63 82 34 44 1006.2 1006.3 8.8
17/10:30pm 9.3 -4.2 6.6 83 1.3 SW 67 78 36 42 1006.0 1006.1 8.8
17/10:00pm 8.8 -2.8 6.6 86 1.0 SW 57 82 31 44 1005.7 1005.8 8.8
17/09:58pm 8.9 -2.5 6.7 86 1.0 SW 56 80 30 43 1005.7 1005.8 8.8
17/09:54pm 8.8 -2.8 6.6 86 1.0 SW 57 69 31 37 1005.9 1006.0 8.8
17/09:44pm 8.2 -5.6 5.3 82 1.3 SW 67 95 36 51 1005.6 1005.7 8.8
17/09:41pm 8.1 -5.8 4.7 79 1.5 SW 67 95 36 51 1005.0 1005.1 8.6
17/09:39pm 10.0 -2.8 6.2 77 1.8 SW 63 91 34 49 1005.4 1005.5 8.6
17/09:30pm 10.0 -2.4 6.3 78 1.7 SW 61 72 33 39 1005.2 1005.3 8.6
17/09:00pm 9.4 -2.7 5.9 79 1.6 SW 59 70 32 38 1005.1 1005.2 8.6
17/08:35pm 10.6 -2.2 6.4 75 2.0 SW 63 83 34 45 1004.7 1004.8 8.6
17/08:30pm 10.3 -3.4 5.9 74 2.0 SW 67 83 36 45 1004.6 1004.7 8.6
17/08:00pm 9.7 -1.8 6.4 80 1.5 WSW 56 69 30 37 1004.3 1004.4 8.6
17/07:30pm 9.3 -2.2 6.4 82 1.3 WSW 56 70 30 38 1003.8 1003.9 8.6
17/07:00pm 9.6 -2.3 6.9 83 1.3 WSW 59 70 32 38 1003.4 1003.5 8.4
17/06:30pm 9.4 -1.8 7.5 88 0.9 WSW 56 65 30 35 1003.4 1003.5 8.4
17/06:00pm 7.6 -5.7 5.6 87 0.9 SW 65 91 35 49 1003.2 1003.2 8.4
17/05:58pm 7.7 -5.7 5.5 86 1.0 SW 65 91 35 49 1003.2 1003.2 8.4
17/05:54pm 8.5 -4.0 6.0 84 1.1 SW 61 91 33 49 1002.4 1002.4 8.4
17/05:52pm 10.1 -1.1 7.5 84 1.2 WSW 56 87 30 47 1002.6 1002.6 8.2
17/05:30pm 9.5 -2.4 7.1 85 1.1 WSW 59 74 32 40 1002.1 1002.1 8.2
17/05:03pm 8.6 -2.3 5.7 82 1.3 SW 52 70 28 38 1002.7 1002.7 7.6
17/05:00pm 8.6 -2.7 5.4 80 1.4 SW 54 70 29 38 1002.7 1002.7 7.4
17/04:30pm 10.7 -0.3 6.8 77 1.8 WSW 54 63 29 34 1002.0 1002.0 7.2
17/04:00pm 10.5 -2.0 7.6 82 1.4 WSW 63 82 34 44 1001.5 1001.5 7.2
17/03:30pm 9.0 -3.4 6.4 84 1.2 WSW 61 83 33 45 1001.8 1001.8 7.2
17/03:23pm 10.4 -1.6 6.7 78 1.7 WSW 59 83 32 45 1001.3 1001.3 7.0
17/03:00pm 10.8 0.0 7.7 81 1.5 WSW 54 65 29 35 1001.4 1001.4 6.8
17/02:30pm 9.8 -0.8 7.1 83 1.3 WSW 52 67 28 36 1001.4 1001.4 6.8
17/02:22pm 10.6 1.0 8.0 84 1.3 WSW 48 67 26 36 1001.2 1001.2 6.8
17/02:07pm 10.0 -2.2 7.4 84 1.2 WSW 61 82 33 44 1001.6 1001.6 6.8
17/02:00pm 10.6 -2.3 7.8 83 1.4 WSW 65 82 35 44 1000.9 1000.9 6.8
17/01:52pm 11.2 0.2 8.6 84 1.3 WSW 56 74 30 40 1000.8 1000.8 6.6
17/01:30pm 11.2 0.2 9.3 88 1.0 WSW 57 69 31 37 1000.8 1000.8 6.6
17/01:17pm 10.9 -0.1 9.2 89 0.8 WSW 57 76 31 41 1000.4 1000.4 6.6
17/01:07pm 11.0 3.1 9.4 90 0.8 W 41 67 22 36 1000.9 1000.9 6.6
17/01:00pm 11.0 2.7 9.4 90 0.8 W 43 56 23 30 1001.1 1001.1 6.6
17/12:30pm 10.8 1.6 9.4 91 0.7 W 48 70 26 38 1001.2 1001.2 6.6
17/12:26pm 10.5 0.8 9.1 91 0.7 W 50 70 27 38 1001.1 1001.1 6.6
17/12:00pm 9.6 -1.1 8.0 90 0.8 W 54 74 29 40 1001.6 1001.6 6.0
17/11:56am 10.8 1.6 9.4 91 0.7 WNW 48 69 26 37 1001.7 1001.7 6.0
17/11:50am 11.2 2.1 10.0 92 0.6 WNW 48 69 26 37 1002.0 1002.0 6.0
17/11:30am 10.8 0.1 9.7 93 0.6 WNW 56 72 30 39 1002.1 1002.1 6.0
17/11:00am 11.2 2.2 10.1 93 0.6 NW 48 69 26 37 1002.7 1002.7 5.4
17/10:30am 10.7 1.9 9.6 93 0.6 WNW 46 65 25 35 1003.6 1003.7 4.8
17/10:18am 10.9 1.8 9.8 93 0.6 WNW 48 69 26 37 1003.9 1004.0 4.2
17/10:00am 10.8 2.0 9.6 92 0.6 WNW 46 61 25 33 1004.0 1004.1 3.0
17/09:37am 10.9 2.7 9.7 92 0.6 NW 43 63 23 34 1004.7 1004.8 1.4
17/09:30am 10.9 2.1 9.7 92 0.6 NW 46 61 25 33 1004.8 1004.9 1.0
17/09:09am 10.9 3.4 9.5 91 0.7 NW 39 61 21 33 1005.1 1005.2 0.6
17/09:00am 10.8 2.5 9.2 90 0.8 NW 43 56 23 30 1005.1 1005.2 4.2
17/08:30am 10.8 4.4 9.2 90 0.8 NW 33 52 18 28 1005.9 1006.0 3.2
17/08:27am 10.9 4.7 9.3 90 0.8 NW 32 50 17 27 1005.9 1006.0 3.2
17/08:00am 10.8 4.3 9.1 89 0.8 NW 33 48 18 26 1006.3 1006.4 2.6
17/07:30am 10.7 3.1 9.0 89 0.8 NW 39 52 21 28 1007.0 1007.1 2.4
17/07:00am 10.8 4.0 9.1 89 0.8 NW 35 48 19 26 1007.4 1007.5 2.2
17/06:30am 10.3 3.9 8.6 89 0.8 NW 32 54 17 29 1007.9 1008.0 2.2
17/06:27am 10.2 3.2 8.3 88 0.9 NW 35 54 19 29 1007.9 1008.0 2.2
17/06:00am 10.1 1.9 8.2 88 0.9 WNW 41 54 22 29 1007.9 1008.0 2.2
17/05:30am 10.8 3.5 8.7 87 1.0 WNW 37 48 20 26 1008.3 1008.4 1.8
17/05:00am 10.6 3.4 9.0 90 0.8 WNW 37 48 20 26 1008.7 1008.8 1.8
17/04:30am 10.3 4.0 8.9 91 0.7 WNW 32 44 17 24 1008.8 1008.9 1.8
17/04:12am 10.1 3.5 8.7 91 0.7 W 33 52 18 28 1009.2 1009.3 1.8
17/04:00am 9.9 2.5 8.5 91 0.7 WNW 37 56 20 30 1009.5 1009.6 1.8
17/03:37am 10.4 3.9 8.8 90 0.8 W 33 54 18 29 1009.7 1009.8 1.8
17/03:30am 10.6 3.4 9.0 90 0.8 W 37 52 20 28 1010.2 1010.3 1.4
17/03:00am 10.3 3.3 8.6 89 0.8 WNW 35 50 19 27 1010.9 1011.0 1.4
17/02:30am 10.3 4.7 8.6 89 0.8 WNW 28 39 15 21 1011.2 1011.3 1.4
17/02:00am 10.3 4.6 8.4 88 0.9 WNW 28 39 15 21 1011.5 1011.6 1.2
17/01:30am 10.3 4.9 8.1 86 1.1 WNW 26 37 14 20 1011.7 1011.8 1.2
17/01:00am 10.9 4.9 8.5 85 1.2 W 30 41 16 22 1012.0 1012.1 0.8
17/12:30am 10.9 4.9 8.7 86 1.1 W 30 39 16 21 1012.4 1012.5 0.8
17/12:00am 10.8 4.2 8.7 87 1.0 W 33 44 18 24 1012.6 1012.7 0.8
 
Date/Time
EST
Temp
°C
App
Temp
°C
Dew
Point
°C
Rel
Hum
%
Delta-T
°C
Wind Press
QNH
hPa
Press
MSL
hPa
Rain since
9am
mm
Dir  Spd
km/h
Gust
km/h
Spd
kts
Gust
kts
16/11:30pm 10.8 3.6 9.1 89 0.8 W 37 46 20 25 1012.7 1012.8 0.8
16/11:00pm 10.9 4.5 9.3 90 0.8 W 33 52 18 28 1012.9 1013.0 0.8
16/10:59pm 11.1 4.7 9.5 90 0.8 W 33 52 18 28 1012.9 1013.0 0.8
16/10:30pm 10.9 3.7 9.3 90 0.8 WSW 37 48 20 26 1012.9 1013.0 0.8
16/10:00pm 11.2 3.0 9.6 90 0.8 WSW 43 52 23 28 1013.0 1013.1 0.8
16/09:30pm 11.1 2.3 9.7 91 0.7 WSW 46 54 25 29 1013.2 1013.3 0.8
16/09:00pm 11.1 4.0 9.7 91 0.7 WSW 37 48 20 26 1013.3 1013.4 0.8
16/08:47pm 11.0 3.2 9.6 91 0.7 WSW 41 59 22 32 1013.4 1013.5 0.8
16/08:30pm 11.5 4.2 10.2 92 0.7 WSW 39 46 21 25 1013.6 1013.7 0.8
16/08:00pm 11.4 4.1 10.1 92 0.7 WSW 39 48 21 26 1013.7 1013.8 0.8
16/07:30pm 11.2 3.5 10.1 93 0.6 WSW 41 52 22 28 1013.8 1013.9 0.8
16/07:00pm 11.0 3.6 9.9 93 0.6 WSW 39 56 21 30 1013.8 1013.9 0.8
16/06:30pm 11.2 3.9 10.1 93 0.6 WSW 39 48 21 26 1013.8 1013.9 0.8
16/06:13pm 11.2 5.0 10.1 93 0.6 WSW 33 56 18 30 1013.9 1014.0 0.8
16/06:00pm 11.0 3.6 9.8 92 0.6 WSW 39 48 21 26 1013.8 1013.9 0.8
16/05:30pm 11.2 4.2 10.0 92 0.6 WSW 37 43 20 23 1014.2 1014.3 0.8
16/05:00pm 11.2 4.2 10.0 92 0.6 SW 37 44 20 24 1014.0 1014.1 0.6
16/04:30pm 11.1 3.0 9.9 92 0.6 WSW 43 52 23 28 1014.0 1014.1 0.6
16/04:00pm 11.5 4.5 10.1 91 0.7 SW 37 50 20 27 1014.1 1014.2 0.6
16/03:30pm 11.5 4.5 10.1 91 0.7 WSW 37 43 20 23 1014.0 1014.1 0.6
16/03:00pm 11.8 4.5 10.2 90 0.8 WSW 39 48 21 26 1013.8 1013.9 0.4
16/02:30pm 11.9 3.9 10.5 91 0.7 SW 43 54 23 29 1013.9 1014.0 0.4
16/02:00pm 11.6 4.3 10.3 92 0.7 SW 39 46 21 25 1013.8 1013.9 0.4
16/01:30pm 11.6 3.9 10.3 92 0.7 WSW 41 46 22 25 1013.9 1014.0 0.4
16/01:00pm 11.5 4.2 10.2 92 0.7 SW 39 44 21 24 1014.2 1014.3 0.4
16/12:30pm 11.5 3.9 10.4 93 0.6 SW 41 48 22 26 1014.2 1014.3 0.4
16/12:00pm 11.5 3.5 10.4 93 0.6 WSW 43 50 23 27 1014.5 1014.6 0.4
16/11:30am 11.2 3.5 10.1 93 0.6 SW 41 46 22 25 1014.6 1014.7 0.4
16/11:00am 11.7 3.7 10.6 93 0.6 SW 43 52 23 28 1014.9 1015.0 0.4
16/10:30am 11.2 3.5 10.3 94 0.5 SW 41 50 22 27 1014.8 1014.9 0.4
16/10:00am 11.1 3.4 10.3 95 0.4 SW 41 52 22 28 1014.8 1014.9 0.2
16/09:40am 10.9 2.6 10.0 94 0.5 SW 44 65 24 35 1014.5 1014.6 0.2
16/09:30am 11.1 3.1 10.3 95 0.4 WSW 43 50 23 27 1014.9 1015.0 0.2
16/09:00am 10.8 3.0 9.9 94 0.5 SW 41 48 22 26 1014.7 1014.8 3.4
16/08:30am 11.4 3.2 10.5 94 0.5 WSW 44 52 24 28 1014.2 1014.3 2.8
16/08:00am 11.2 2.6 10.3 94 0.5 SW 46 57 25 31 1013.9 1014.0 2.8
16/07:30am 11.1 2.1 10.2 94 0.5 SW 48 57 26 31 1013.7 1013.8 2.8
16/07:00am 11.4 3.2 10.5 94 0.5 WSW 44 56 24 30 1013.7 1013.8 2.4
16/06:30am 11.2 2.2 10.3 94 0.5 SW 48 57 26 31 1013.2 1013.3 2.4
16/06:00am 11.3 1.6 10.4 94 0.5 WSW 52 61 28 33 1012.9 1013.0 2.4
16/05:30am 11.1 1.3 10.2 94 0.5 WSW 52 65 28 35 1012.6 1012.7 2.4
16/05:00am 11.1 0.9 10.2 94 0.5 WSW 54 65 29 35 1012.5 1012.6 2.4
16/04:30am 11.2 1.8 10.3 94 0.5 WSW 50 67 27 36 1012.5 1012.6 2.2
16/04:00am 11.0 2.0 10.1 94 0.5 WSW 48 59 26 32 1012.6 1012.7 2.0
16/03:30am 10.8 2.6 9.7 93 0.6 WSW 43 56 23 30 1012.5 1012.6 2.0
16/03:00am 10.7 3.2 9.6 93 0.6 WSW 39 52 21 28 1012.9 1013.0 1.4
16/02:30am 10.5 3.0 9.4 93 0.5 WSW 39 50 21 27 1013.3 1013.4 1.4
16/02:14am 10.6 3.5 9.5 93 0.6 WSW 37 57 20 31 1013.2 1013.3 1.4
16/02:00am 10.2 3.0 9.1 93 0.5 WSW 37 48 20 26 1013.5 1013.6 1.4
16/01:30am 10.2 2.2 9.1 93 0.5 WSW 41 54 22 29 1013.8 1013.9 1.4
16/01:00am 9.9 1.3 8.8 93 0.5 WSW 44 57 24 31 1013.9 1014.0 1.4
16/12:30am 10.3 2.7 9.2 93 0.5 WSW 39 48 21 26 1013.9 1014.0 1.4
16/12:00am 10.3 2.0 9.2 93 0.5 WSW 43 52 23 28 1014.4 1014.5 1.2
 
Date/Time
EST
Temp
°C
App
Temp
°C
Dew
Point
°C
Rel
Hum
%
Delta-T
°C
Wind Press
QNH
hPa
Press
MSL
hPa
Rain since
9am
mm
Dir  Spd
km/h
Gust
km/h
Spd
kts
Gust
kts
15/11:30pm 10.7 2.9 9.6 93 0.6 WSW 41 52 22 28 1014.2 1014.3 1.0
15/11:00pm 10.7 2.3 9.6 93 0.6 WSW 44 56 24 30 1014.4 1014.5 1.0
15/10:30pm 10.7 2.5 9.6 93 0.6 WSW 43 57 23 31 1014.2 1014.3 1.0
15/10:00pm 11.0 3.3 10.1 94 0.5 WSW 41 48 22 26 1014.4 1014.5 1.0
15/09:30pm 10.8 2.5 9.9 94 0.5 WSW 44 59 24 32 1014.5 1014.6 1.0
15/09:00pm 10.8 2.5 9.9 94 0.5 SW 44 57 24 31 1014.5 1014.6 0.8
15/08:37pm 11.0 2.9 10.1 94 0.5 SW 43 65 23 35 1014.3 1014.4 0.8
15/08:30pm 11.0 3.3 10.1 94 0.5 WSW 41 50 22 27 1014.6 1014.7 0.8
15/08:00pm 11.0 2.9 9.9 93 0.6 WSW 43 52 23 28 1014.4 1014.5 0.6
15/07:30pm 11.1 3.0 10.0 93 0.6 WSW 43 52 23 28 1014.3 1014.4 0.4
15/07:00pm 10.8 1.6 9.6 92 0.6 WSW 48 59 26 32 1014.0 1014.1 0.4
15/06:30pm 11.0 2.6 9.8 92 0.6 WSW 44 59 24 32 1013.9 1014.0 0.4
15/06:00pm 10.9 2.1 9.7 92 0.6 WSW 46 57 25 31 1013.6 1013.7 0.4
15/05:30pm 10.9 3.8 9.7 92 0.6 WSW 37 54 20 29 1013.4 1013.5 0.4
15/05:13pm 11.0 3.6 9.8 92 0.6 WSW 39 57 21 31 1013.5 1013.6 0.4
15/05:00pm 10.7 2.4 9.5 92 0.6 WSW 43 54 23 29 1013.7 1013.8 0.4
15/04:30pm 10.5 2.9 9.1 91 0.7 WSW 39 56 21 30 1013.7 1013.8 0.4
15/04:27pm 11.0 4.3 9.6 91 0.7 WSW 35 54 19 29 1013.8 1013.9 0.4
15/04:00pm 10.8 2.3 9.2 90 0.8 WSW 44 52 24 28 1013.8 1013.9 0.4
15/03:30pm 10.7 1.8 9.3 91 0.7 WSW 46 61 25 33 1013.7 1013.8 0.4
15/03:26pm 10.9 2.6 9.5 91 0.7 WSW 43 61 23 33 1013.5 1013.6 0.4
15/03:00pm 10.7 3.1 9.1 90 0.8 WSW 39 50 21 27 1013.6 1013.7 0.2
15/02:30pm 11.2 2.9 9.5 89 0.9 WSW 43 48 23 26 1013.5 1013.6 0.0
15/02:00pm 11.3 1.8 9.7 90 0.8 WSW 50 65 27 35 1012.9 1013.0 0.0
15/01:40pm 11.2 2.8 9.8 91 0.7 WSW 44 63 24 34 1012.9 1013.0 0.0
15/01:30pm 11.6 3.9 10.2 91 0.7 WSW 41 52 22 28 1013.1 1013.2 0.0
15/01:00pm 11.4 2.3 9.8 90 0.8 WSW 48 65 26 35 1013.1 1013.2 0.0
15/12:30pm 11.8 4.1 10.2 90 0.8 WSW 41 54 22 29 1013.4 1013.5 0.0
15/12:00pm 11.5 4.5 9.8 89 0.9 WSW 37 52 20 28 1013.9 1014.0 0.0
15/11:30am 11.1 4.2 9.0 87 1.0 WSW 35 44 19 24 1014.0 1014.1 0.0
15/11:00am 11.2 5.2 8.6 84 1.3 WSW 30 41 16 22 1014.6 1014.7 0.0
15/10:30am 11.1 4.6 8.0 81 1.5 WSW 32 39 17 21 1014.8 1014.9 0.0
15/10:00am 10.8 4.2 7.7 81 1.5 WSW 32 41 17 22 1014.8 1014.9 0.0
15/09:30am 10.9 3.5 6.6 75 2.0 WSW 35 41 19 22 1015.0 1015.1 0.0
15/09:00am 10.4 3.3 6.4 76 1.9 WSW 33 41 18 22 1014.9 1015.0 7.2
15/08:30am 10.0 3.0 6.7 80 1.5 WSW 33 41 18 22 1015.0 1015.1 7.2
15/08:00am 10.0 2.9 6.5 79 1.6 SW 33 39 18 21 1014.9 1015.0 7.2
15/07:30am 9.7 2.7 6.2 79 1.6 WSW 32 43 17 23 1014.8 1014.9 7.2
15/07:00am 10.0 2.2 6.5 79 1.6 SW 37 44 20 24 1014.5 1014.6 7.2
15/06:30am 9.4 1.9 6.3 81 1.4 SSW 35 43 19 23 1014.6 1014.7 7.2
15/06:00am 9.5 1.2 6.2 80 1.5 SW 39 48 21 26 1013.9 1014.0 7.2
15/05:30am 9.8 1.7 6.9 82 1.4 SW 39 56 21 30 1013.5 1013.6 7.2
15/05:00am 9.1 0.2 6.7 85 1.1 SW 43 54 23 29 1013.4 1013.5 7.2
15/04:30am 8.6 -2.5 6.4 86 1.0 SW 54 61 29 33 1012.9 1013.0 7.2
15/04:20am 9.2 0.7 6.8 85 1.1 SW 41 59 22 32 1012.7 1012.8 7.2
15/04:00am 8.8 -1.5 6.6 86 1.0 SW 50 63 27 34 1012.5 1012.6 7.2
15/03:30am 9.1 -0.3 7.1 87 0.9 SW 46 56 25 30 1012.5 1012.6 7.0
15/03:00am 9.1 -1.0 7.4 89 0.8 SW 50 59 27 32 1012.1 1012.2 7.0
15/02:34am 9.1 -0.6 7.5 90 0.8 SSW 48 67 26 36 1012.0 1012.1 7.0
15/02:30am 8.9 -2.0 7.4 90 0.7 SSW 54 69 29 37 1012.0 1012.1 7.0
15/02:00am 9.0 -1.0 7.8 92 0.6 SSW 50 61 27 33 1011.3 1011.4 6.8
15/01:41am 8.6 -2.7 7.2 91 0.7 SSW 56 76 30 41 1010.9 1011.0 6.6
15/01:30am 9.0 -2.3 7.8 92 0.6 SSW 57 70 31 38 1010.4 1010.5 6.4

Other formats

Comma delimited format used in spreadsheet applications
http://www.bom.gov.au/fwo/IDT60801/IDT60801.94974.axf

JavaScript Object Notation format (JSON) in row-major order
http://www.bom.gov.au/fwo/IDT60801/IDT60801.94974.json

Data quality

Most of these data are generated automatically and are frequently updated. Quality checks on data are not normally performed. It is possible for incorrect values to appear. Refer to information at About Latest Weather Observations and please check the disclaimer before using these data.